createdAt,value
2019-03-15T01:41:50.038Z,91.70
2019-03-15T01:44:26.581Z,90.30
2019-03-15T01:47:03.221Z,92.60
2019-03-15T01:49:37.449Z,83.00
2019-03-15T01:52:11.013Z,89.20
2019-03-15T01:54:45.709Z,90.90
2019-03-15T01:57:19.957Z,92.30
2019-03-15T01:59:54.610Z,93.50
2019-03-15T02:02:28.508Z,94.00
2019-03-15T02:05:02.050Z,93.40
2019-03-15T02:07:36.129Z,92.80
2019-03-15T02:10:12.334Z,92.70
2019-03-15T02:12:47.466Z,94.30
2019-03-15T02:15:22.437Z,94.00
2019-03-15T02:17:56.016Z,93.10
2019-03-15T02:20:29.905Z,92.30
2019-03-15T02:23:03.749Z,93.50
2019-03-15T02:25:37.647Z,94.10
2019-03-15T02:28:11.799Z,94.00
2019-03-15T02:30:45.507Z,91.80
2019-03-15T02:33:19.336Z,93.10
2019-03-15T02:35:53.286Z,90.00
2019-03-15T02:38:27.542Z,91.30
2019-03-15T02:41:01.672Z,92.80
2019-03-15T02:43:37.272Z,93.40
2019-03-15T02:46:12.862Z,92.20
2019-03-15T02:48:46.506Z,93.20
2019-03-15T02:51:21.691Z,93.20
2019-03-15T02:53:56.713Z,93.20
2019-03-15T02:56:30.846Z,93.10
2019-03-15T02:59:06.240Z,93.00
2019-03-15T03:01:41.548Z,94.40
2019-03-15T03:04:15.288Z,93.10
2019-03-15T03:06:50.822Z,93.60
2019-03-15T03:09:24.533Z,93.00
2019-03-15T03:11:58.840Z,93.30
2019-03-15T03:14:37.223Z,93.10
2019-03-15T03:17:14.177Z,91.90
2019-03-15T03:19:47.688Z,92.60
2019-03-15T03:22:22.539Z,93.80
2019-03-15T03:24:56.266Z,92.40
2019-03-15T03:27:30.142Z,92.70
2019-03-15T03:30:03.596Z,92.90
2019-03-15T03:32:38.013Z,93.00
2019-03-15T03:35:12.201Z,93.60
2019-03-15T03:37:46.521Z,92.10
2019-03-15T03:40:21.162Z,93.50
2019-03-15T03:42:55.330Z,92.00
2019-03-15T03:45:29.177Z,91.60
2019-03-15T03:48:03.486Z,91.10
2019-03-15T03:50:37.328Z,93.60
2019-03-15T03:53:11.079Z,93.30
2019-03-15T03:55:44.583Z,93.10
2019-03-15T03:58:21.756Z,91.20
2019-03-15T04:00:57.072Z,93.00
2019-03-15T04:03:31.242Z,92.30
2019-03-15T04:06:05.154Z,93.50
2019-03-15T04:08:39.258Z,93.00
2019-03-15T04:11:13.679Z,93.10
2019-03-15T04:13:48.112Z,91.20
2019-03-15T04:16:22.568Z,88.40
2019-03-15T04:18:57.337Z,92.90
2019-03-15T04:21:31.298Z,93.20
2019-03-15T04:24:04.989Z,93.20
2019-03-15T04:26:38.816Z,92.20
2019-03-15T04:29:12.485Z,92.70
2019-03-15T04:31:46.373Z,92.30
2019-03-15T04:34:20.207Z,92.30
2019-03-15T04:36:54.464Z,92.40
2019-03-15T04:39:28.321Z,91.40
2019-03-15T04:42:01.789Z,92.60
2019-03-15T04:44:38.065Z,92.40
2019-03-15T04:47:12.033Z,91.50
2019-03-15T04:49:46.891Z,91.60
2019-03-15T04:52:20.513Z,92.30
2019-03-15T04:54:55.580Z,92.20
2019-03-15T04:57:30.144Z,92.80
2019-03-15T05:00:04.024Z,92.10
2019-03-15T05:02:37.924Z,92.40
2019-03-15T05:05:12.230Z,91.80
2019-03-15T05:07:46.342Z,91.70
2019-03-15T05:10:20.033Z,90.70
2019-03-15T05:12:55.486Z,90.70
2019-03-15T05:15:31.563Z,92.00
2019-03-15T05:18:05.181Z,92.20
2019-03-15T05:20:39.454Z,90.70
2019-03-15T05:23:17.666Z,92.30
2019-03-15T05:25:50.370Z,91.60
2019-03-15T05:28:24.099Z,90.10
2019-03-15T05:30:58.104Z,92.10
2019-03-15T05:33:32.016Z,91.70
2019-03-15T05:36:06.397Z,90.80
2019-03-15T05:38:40.819Z,91.50
2019-03-15T05:41:16.260Z,92.00
2019-03-15T05:43:52.892Z,90.30
2019-03-15T05:46:25.208Z,90.60
2019-03-15T05:48:59.034Z,92.20
2019-03-15T05:51:32.747Z,92.60
2019-03-15T05:54:07.926Z,90.70
2019-03-15T05:56:41.699Z,90.50
2019-03-15T05:59:16.307Z,92.10
2019-03-15T06:01:50.435Z,91.40
2019-03-15T06:04:24.152Z,91.90
2019-03-15T06:06:58.011Z,92.00
2019-03-15T06:09:31.542Z,91.30
2019-03-15T06:12:05.571Z,91.20
2019-03-15T06:14:39.206Z,91.00
2019-03-15T06:17:13.728Z,90.00
2019-03-15T06:19:47.344Z,91.50
2019-03-15T06:22:21.382Z,91.40
2019-03-15T06:24:54.840Z,90.90
2019-03-15T06:27:31.143Z,91.80
2019-03-15T06:30:04.134Z,92.10
2019-03-15T06:32:38.276Z,91.60
2019-03-15T06:35:11.846Z,91.00
2019-03-15T06:38:06.848Z,91.50
2019-03-15T06:40:40.401Z,91.20
2019-03-15T06:43:14.399Z,90.70
2019-03-15T06:45:48.186Z,91.40
2019-03-15T06:48:22.141Z,92.50
2019-03-15T06:50:55.894Z,89.20
2019-03-15T06:53:29.970Z,89.10
2019-03-15T06:56:03.535Z,92.10
2019-03-15T06:58:38.127Z,92.20
2019-03-15T07:01:12.254Z,91.70
2019-03-15T07:03:46.239Z,91.20
2019-03-15T07:06:20.158Z,88.60
2019-03-15T07:08:53.969Z,92.00
2019-03-15T07:11:27.443Z,91.60
2019-03-15T07:14:02.185Z,91.80
2019-03-15T07:16:38.072Z,91.20
2019-03-15T07:19:25.535Z,91.60
2019-03-15T07:21:50.912Z,92.30
2019-03-15T07:24:44.699Z,91.60
2019-03-15T07:27:18.434Z,91.90
2019-03-15T07:29:54.700Z,88.50
2019-03-15T07:32:28.403Z,90.80
2019-03-15T07:35:03.071Z,91.50
2019-03-15T07:37:37.028Z,91.80
2019-03-15T07:40:14.982Z,91.00
2019-03-15T07:42:49.302Z,91.20
2019-03-15T07:45:28.847Z,92.50
2019-03-15T07:48:02.753Z,91.90
2019-03-15T07:50:36.463Z,92.50
2019-03-15T07:53:10.855Z,92.20
2019-03-15T07:55:44.753Z,92.40
2019-03-15T07:58:18.860Z,92.20
2019-03-15T08:00:52.564Z,90.50
2019-03-15T08:03:26.314Z,91.00
2019-03-15T08:06:00.171Z,92.10
2019-03-15T08:08:34.061Z,90.10
2019-03-15T08:11:07.852Z,90.70
2019-03-15T08:13:41.315Z,91.90
2019-03-15T08:16:15.097Z,87.90
2019-03-15T08:18:48.796Z,90.90
2019-03-15T08:21:23.751Z,91.30
2019-03-15T08:23:57.554Z,91.60
2019-03-15T08:26:32.086Z,91.90
2019-03-15T08:29:09.724Z,89.80
2019-03-15T08:31:43.179Z,92.40
2019-03-15T08:34:17.273Z,90.30
2019-03-15T08:36:51.130Z,92.10
2019-03-15T08:39:24.818Z,92.00
2019-03-15T08:42:06.721Z,92.00
2019-03-15T08:44:41.545Z,91.80
2019-03-15T08:47:15.595Z,91.80
2019-03-15T08:49:49.816Z,91.60
2019-03-15T08:52:23.331Z,92.20
2019-03-15T08:55:04.983Z,89.90
2019-03-15T08:57:32.103Z,92.30
2019-03-15T09:00:06.207Z,92.00
2019-03-15T09:02:40.359Z,89.60
2019-03-15T09:05:15.379Z,91.40
2019-03-15T09:07:50.302Z,90.50
2019-03-15T09:10:24.800Z,91.70
2019-03-15T09:12:58.809Z,91.00
2019-03-15T09:15:32.605Z,92.40
2019-03-15T09:18:06.430Z,92.20
2019-03-15T09:20:40.110Z,91.30
2019-03-15T09:23:13.894Z,92.00
2019-03-15T09:25:47.682Z,92.70
2019-03-15T09:28:21.578Z,91.40
2019-03-15T09:30:56.796Z,91.60
2019-03-15T09:33:30.825Z,91.70
2019-03-15T09:36:04.946Z,91.00
2019-03-15T09:38:38.888Z,91.50
2019-03-15T09:41:13.374Z,91.20
2019-03-15T09:43:47.896Z,92.00
2019-03-15T09:46:21.783Z,91.70
2019-03-15T09:48:59.687Z,90.50
2019-03-15T09:51:32.651Z,92.40
2019-03-15T09:54:06.492Z,92.50
2019-03-15T09:56:40.524Z,91.60
2019-03-15T09:59:14.637Z,92.10
2019-03-15T10:01:48.349Z,91.40
2019-03-15T10:04:22.538Z,91.80
2019-03-15T10:06:56.260Z,92.60
2019-03-15T10:09:29.928Z,90.50
2019-03-15T10:12:04.618Z,92.00
2019-03-15T10:14:38.589Z,91.80
2019-03-15T10:17:13.084Z,89.60
2019-03-15T10:19:47.072Z,92.30
2019-03-15T10:22:20.839Z,92.00
2019-03-15T10:24:54.912Z,92.80
2019-03-15T10:27:29.163Z,91.00
2019-03-15T10:30:02.913Z,91.40
2019-03-15T10:32:37.313Z,91.90
2019-03-15T10:35:11.492Z,91.40
2019-03-15T10:37:45.220Z,91.30
2019-03-15T10:40:23.170Z,92.80
2019-03-15T10:42:57.276Z,92.00
2019-03-15T10:45:34.306Z,92.40
2019-03-15T10:48:08.362Z,92.40
2019-03-15T10:50:42.418Z,91.70
2019-03-15T10:53:16.092Z,91.70
2019-03-15T10:55:59.495Z,92.40
2019-03-15T10:58:25.187Z,91.30
2019-03-15T11:01:00.364Z,91.60
2019-03-15T11:03:34.541Z,92.10
2019-03-15T11:06:08.960Z,92.40
2019-03-15T11:08:42.831Z,91.40
2019-03-15T11:11:16.918Z,91.50
2019-03-15T11:13:50.668Z,92.10
2019-03-15T11:16:25.842Z,92.10
2019-03-15T11:18:59.699Z,92.40
2019-03-15T11:21:34.889Z,91.70
2019-03-15T11:24:08.798Z,92.20
2019-03-15T11:26:43.228Z,91.10
2019-03-15T11:29:16.894Z,91.70
2019-03-15T11:31:50.982Z,92.30
2019-03-15T11:34:24.656Z,92.70
2019-03-15T11:36:58.820Z,91.60
2019-03-15T11:39:33.177Z,92.60
2019-03-15T11:42:10.707Z,92.80
2019-03-15T11:44:45.518Z,92.90
2019-03-15T11:47:19.688Z,92.00
2019-03-15T11:49:54.620Z,91.20
2019-03-15T11:52:28.630Z,91.70
2019-03-15T11:55:03.072Z,92.80
2019-03-15T11:57:37.125Z,92.00
2019-03-15T12:00:20.569Z,92.90
2019-03-15T12:02:54.678Z,92.80
2019-03-15T12:05:30.367Z,92.10
2019-03-15T12:08:04.227Z,92.50
2019-03-15T12:10:37.900Z,90.90
2019-03-15T12:13:12.148Z,92.60
2019-03-15T12:15:45.833Z,92.60
2019-03-15T12:18:19.741Z,91.70
2019-03-15T12:20:53.698Z,91.80
2019-03-15T12:23:28.058Z,92.10
2019-03-15T12:26:01.630Z,92.00
2019-03-15T12:28:35.555Z,92.70
2019-03-15T12:31:09.352Z,90.80
2019-03-15T12:33:43.602Z,92.50
2019-03-15T12:36:17.456Z,92.00
2019-03-15T12:38:51.591Z,91.20
2019-03-15T12:41:25.392Z,93.00
2019-03-15T12:43:59.176Z,93.40
2019-03-15T12:46:33.304Z,93.10
2019-03-15T12:49:07.133Z,92.90
2019-03-15T12:51:41.990Z,92.60
2019-03-15T12:54:16.084Z,94.00
2019-03-15T12:56:54.042Z,93.80
2019-03-15T12:59:26.111Z,93.70
2019-03-15T13:01:59.802Z,93.80
2019-03-15T13:04:33.881Z,92.40
2019-03-15T13:07:07.455Z,91.00
2019-03-15T13:09:41.761Z,93.40
2019-03-15T13:12:15.247Z,90.90
2019-03-15T13:14:49.271Z,92.80
2019-03-15T13:17:22.675Z,93.30
2019-03-15T13:19:56.529Z,94.10
2019-03-15T13:22:29.941Z,94.10
2019-03-15T13:25:04.181Z,93.60
2019-03-15T13:27:37.859Z,93.80
2019-03-15T13:30:14.128Z,93.80
2019-03-15T13:32:48.634Z,93.70
2019-03-15T13:35:23.441Z,93.20
2019-03-15T13:37:57.774Z,93.50
2019-03-15T13:40:32.534Z,94.00
2019-03-15T13:43:09.260Z,93.60
2019-03-15T13:45:43.370Z,93.40
2019-03-15T13:48:17.269Z,93.10
2019-03-15T13:50:51.386Z,92.40
2019-03-15T13:53:25.600Z,92.90
2019-03-15T13:55:59.216Z,93.30
2019-03-15T13:58:33.214Z,93.30
2019-03-15T14:01:07.253Z,93.10
2019-03-15T14:03:41.441Z,92.60
2019-03-15T14:06:15.668Z,92.20
2019-03-15T14:08:49.284Z,93.80
2019-03-15T14:11:23.219Z,93.60
2019-03-15T14:13:58.294Z,93.70
2019-03-15T14:16:32.477Z,93.40
2019-03-15T14:19:06.539Z,93.70
2019-03-15T14:21:41.351Z,93.90
2019-03-15T14:24:14.852Z,94.10
2019-03-15T14:26:50.988Z,93.50
2019-03-15T14:29:24.104Z,93.70
2019-03-15T14:31:58.878Z,92.50
2019-03-15T14:34:32.871Z,94.30
2019-03-15T14:37:10.306Z,94.30
2019-03-15T14:39:43.959Z,93.90
2019-03-15T14:42:18.035Z,94.70
2019-03-15T14:44:54.051Z,94.20
2019-03-15T14:47:27.757Z,94.70
2019-03-15T14:50:06.972Z,93.70
2019-03-15T14:52:41.870Z,94.40
2019-03-15T14:55:17.070Z,94.60
2019-03-15T14:57:53.319Z,94.70
2019-03-15T15:00:26.663Z,94.70
2019-03-15T15:03:01.787Z,95.60
2019-03-15T15:05:36.189Z,92.90
2019-03-15T15:08:10.138Z,95.20
2019-03-15T15:10:43.663Z,94.90
2019-03-15T15:13:18.650Z,95.60
2019-03-15T15:15:53.750Z,95.50
2019-03-15T15:18:27.561Z,95.20
2019-03-15T15:21:01.768Z,95.80
2019-03-15T15:23:35.881Z,95.70
2019-03-15T15:26:09.459Z,95.50
2019-03-15T15:28:44.310Z,95.70
2019-03-15T15:31:18.078Z,95.50
2019-03-15T15:34:12.379Z,95.60
2019-03-15T15:36:47.042Z,95.90
2019-03-15T15:39:20.986Z,95.80
2019-03-15T15:42:05.649Z,95.90
2019-03-15T15:44:42.442Z,96.10
2019-03-15T15:47:18.903Z,96.30
2019-03-15T15:49:52.992Z,96.20
2019-03-15T15:52:26.702Z,96.20
2019-03-15T15:55:00.707Z,96.80
2019-03-15T15:57:36.595Z,96.60
2019-03-15T16:00:19.806Z,96.40
2019-03-15T16:02:53.606Z,96.90
2019-03-15T16:05:27.308Z,96.70
2019-03-15T16:08:01.411Z,96.60
2019-03-15T16:10:34.043Z,97.00
2019-03-15T16:13:17.318Z,97.10
2019-03-15T16:15:45.767Z,96.90
2019-03-15T16:18:19.696Z,96.90
2019-03-15T16:20:53.889Z,96.70
2019-03-15T16:23:30.163Z,97.00
2019-03-15T16:26:02.389Z,97.20
2019-03-15T16:28:36.280Z,96.40
2019-03-15T16:31:10.687Z,96.70
2019-03-15T16:33:45.299Z,96.90
2019-03-15T16:36:19.263Z,96.90
2019-03-15T16:38:52.816Z,97.10
2019-03-15T16:41:26.515Z,97.20
2019-03-15T16:44:00.769Z,97.10
2019-03-15T16:46:34.791Z,96.80
2019-03-15T16:49:08.455Z,97.50
2019-03-15T16:51:42.576Z,97.80
2019-03-15T16:54:16.634Z,97.80
2019-03-15T16:56:50.593Z,97.80
2019-03-15T16:59:24.329Z,97.20
2019-03-15T17:01:58.018Z,97.50
2019-03-15T17:04:31.724Z,97.50
2019-03-15T17:07:05.602Z,97.70
2019-03-15T17:09:39.835Z,97.50
2019-03-15T17:12:13.512Z,97.50
2019-03-15T17:14:47.502Z,97.40
2019-03-15T17:17:21.021Z,97.70
2019-03-15T17:19:54.687Z,98.00
2019-03-15T17:22:28.872Z,98.10
2019-03-15T17:25:02.541Z,98.00
2019-03-15T17:27:44.782Z,98.30
2019-03-15T17:30:19.231Z,98.00
2019-03-15T17:32:53.769Z,98.00
2019-03-15T17:35:27.671Z,98.00
2019-03-15T17:38:01.402Z,98.10
2019-03-15T17:40:35.006Z,97.70
2019-03-15T17:43:11.326Z,97.80
2019-03-15T17:45:45.228Z,97.80
2019-03-15T17:48:20.059Z,98.00
2019-03-15T17:50:53.772Z,98.00
2019-03-15T17:53:27.614Z,98.20
2019-03-15T17:56:02.745Z,98.10
2019-03-15T17:58:37.606Z,98.30
2019-03-15T18:01:11.369Z,98.20
2019-03-15T18:03:47.275Z,98.40
2019-03-15T18:06:20.634Z,98.40
2019-03-15T18:08:54.901Z,98.50
2019-03-15T18:11:28.634Z,98.40
2019-03-15T18:14:02.640Z,98.40
2019-03-15T18:16:36.578Z,98.30
2019-03-15T18:19:10.485Z,98.50
2019-03-15T18:21:44.783Z,98.40
2019-03-15T18:24:18.733Z,98.30
2019-03-15T18:26:52.460Z,98.80
2019-03-15T18:29:26.850Z,98.80
2019-03-15T18:32:00.596Z,99.00
2019-03-15T18:34:34.531Z,98.80
2019-03-15T18:37:08.200Z,98.90
2019-03-15T18:39:42.158Z,98.50
2019-03-15T18:42:15.837Z,98.70
2019-03-15T18:44:49.748Z,98.80
2019-03-15T18:47:23.701Z,98.80
2019-03-15T18:49:57.714Z,98.60
2019-03-15T18:52:31.671Z,98.90
2019-03-15T18:55:05.708Z,99.00
2019-03-15T18:57:39.482Z,98.90
2019-03-15T19:00:18.183Z,98.90
2019-03-15T19:02:52.220Z,98.10
2019-03-15T19:05:26.026Z,98.00
2019-03-15T19:07:59.705Z,97.40
2019-03-15T19:10:33.635Z,98.60
2019-03-15T19:13:07.515Z,98.60
2019-03-15T19:15:43.769Z,98.90
2019-03-15T19:18:16.512Z,98.80
2019-03-15T19:20:50.693Z,98.20
2019-03-15T19:23:25.327Z,98.30
2019-03-15T19:25:59.553Z,99.00
2019-03-15T19:28:33.725Z,99.30
2019-03-15T19:31:07.725Z,99.40
2019-03-15T19:33:41.474Z,99.40
2019-03-15T19:36:15.668Z,98.90
2019-03-15T19:38:52.404Z,99.20
2019-03-15T19:41:26.035Z,98.90
2019-03-15T19:43:59.713Z,99.10
2019-03-15T19:46:34.177Z,99.10
2019-03-15T19:49:08.148Z,99.10
2019-03-15T19:51:42.457Z,99.10
2019-03-15T19:54:16.537Z,99.40
2019-03-15T19:56:50.135Z,99.50
2019-03-15T19:59:43.821Z,99.60
2019-03-15T20:02:18.882Z,99.80
2019-03-15T20:04:52.910Z,99.70
2019-03-15T20:07:29.908Z,99.60
2019-03-15T20:10:04.336Z,99.40
2019-03-15T20:12:38.745Z,99.90
2019-03-15T20:15:14.800Z,99.90
2019-03-15T20:17:48.796Z,99.70
2019-03-15T20:20:23.147Z,99.90
2019-03-15T20:22:57.000Z,99.80
2019-03-15T20:25:31.993Z,99.50
2019-03-15T20:28:06.128Z,99.80
2019-03-15T20:30:51.996Z,99.90
2019-03-15T20:33:19.658Z,99.90
2019-03-15T20:35:55.141Z,99.90
2019-03-15T20:38:39.037Z,99.90
2019-03-15T20:41:14.029Z,99.80
2019-03-15T20:43:48.473Z,99.60
2019-03-15T20:46:34.889Z,99.60
2019-03-15T20:48:58.347Z,99.80
2019-03-15T20:51:32.797Z,99.60
2019-03-15T20:54:06.287Z,99.40
2019-03-15T20:56:40.043Z,99.50
2019-03-15T20:59:14.113Z,99.60
2019-03-15T21:01:49.112Z,99.50
2019-03-15T21:04:23.317Z,99.80
2019-03-15T21:06:57.401Z,99.60
2019-03-15T21:09:32.414Z,99.70
2019-03-15T21:12:06.492Z,99.90
2019-03-15T21:14:40.387Z,99.90
2019-03-15T21:17:14.216Z,99.80
2019-03-15T21:19:47.974Z,99.90
2019-03-15T21:22:21.727Z,99.90
2019-03-15T21:24:55.365Z,99.90
2019-03-15T21:27:29.113Z,99.90
2019-03-15T21:30:03.282Z,99.90
2019-03-15T21:32:37.411Z,99.90
2019-03-15T21:35:12.531Z,99.90
2019-03-15T21:37:46.751Z,99.90
2019-03-15T21:40:23.533Z,99.90
2019-03-15T21:42:57.401Z,99.90
2019-03-15T21:45:30.930Z,99.90
2019-03-15T21:48:04.971Z,99.90
2019-03-15T21:50:38.885Z,99.90
2019-03-15T21:53:12.640Z,99.90
2019-03-15T21:55:46.528Z,99.90
2019-03-15T21:58:20.434Z,99.90
2019-03-15T22:01:02.323Z,99.90
2019-03-15T22:03:29.553Z,99.90
2019-03-15T22:06:03.364Z,99.90
2019-03-15T22:08:37.740Z,99.90
2019-03-15T22:11:21.146Z,99.90
2019-03-15T22:13:47.153Z,99.90
2019-03-15T22:16:21.396Z,99.90
2019-03-15T22:18:55.013Z,99.90
2019-03-15T22:21:30.126Z,99.90
2019-03-15T22:24:03.639Z,99.90
2019-03-15T22:26:57.374Z,99.90
2019-03-15T22:29:31.944Z,99.90
2019-03-15T22:32:06.397Z,99.90
2019-03-15T22:34:40.492Z,99.90
2019-03-15T22:37:14.513Z,99.90
2019-03-15T22:40:00.359Z,99.90
2019-03-15T22:42:34.362Z,99.90
2019-03-15T22:45:10.777Z,99.90
2019-03-15T22:47:45.464Z,99.90
2019-03-15T22:50:19.818Z,99.90
2019-03-15T22:52:54.023Z,99.90
2019-03-15T22:55:46.593Z,99.90
2019-03-15T22:58:20.521Z,99.90
2019-03-15T23:00:54.630Z,99.90
2019-03-15T23:03:28.790Z,99.90
2019-03-15T23:06:03.110Z,99.90
2019-03-15T23:08:36.879Z,99.90
2019-03-15T23:11:11.025Z,99.90
2019-03-15T23:13:44.913Z,99.90
2019-03-15T23:16:18.818Z,99.90
2019-03-15T23:18:53.019Z,99.90
2019-03-15T23:21:26.996Z,99.90
2019-03-15T23:24:00.772Z,99.90
2019-03-15T23:26:34.888Z,99.90
2019-03-15T23:29:09.133Z,99.90
2019-03-15T23:31:43.810Z,99.90
2019-03-15T23:34:19.037Z,99.90
2019-03-15T23:36:54.077Z,99.90
2019-03-15T23:39:28.151Z,99.90
2019-03-15T23:42:02.332Z,99.60
2019-03-15T23:44:36.119Z,99.90
2019-03-15T23:47:10.248Z,99.90
2019-03-15T23:49:44.017Z,99.90
2019-03-15T23:52:21.348Z,99.90
2019-03-15T23:54:58.792Z,99.90
2019-03-15T23:57:32.580Z,99.90
